Details From SBGL - Galeao Antonio Carlos Jombim
To SBAF - Campo Delio Jardim de Mattos
Flight Number -
Tags generated
Created
Modified
Stats Distance 9 nm / 16 km
Max Altitude 0 ft / 0 m
Waypoints 2
Social Downloads 4
Likes 0
Share VATSIM

Download

Looking for another format? Having issues loading an existing format? Contact us
Advertisement - Login to hide

Notes

Basic altitude profile: - Ascent Rate: 2000ft/min - Ascent Speed: 250kts - Cruise Altitude: 5000ft - Cruise Speed: 300kts - Descent Rate: 1500ft/min - Descent Speed: 250kts Options: - Use NATs: yes - Use PACOTS: yes - Use low airways: yes - Use high airways: yes

Route

SBGL SBAF

ID Type Via Altitude (ft/m) Position (lat/lon) Dist (leg/tot) Name
O SBGL APT - 0 / 0 -22.80894 / -43.24368 - / 0 nm Galeao Antonio Carlos Jombim
O SBAF APT - 0 / 0 -22.87508 / -43.38471 8 / 8 nm Campo Delio Jardim de Mattos

Altitude Profile

Advertisement - Login to hide

SBGL

Details ICAO SBGL (GIG)
Name Rio de Janeiro-Galeao Intl
Region Brazil
Timezone America/Sao_Paulo (UTC-2.0)
Stats Elevation 27 ft / 8 m (AMSL)
Location -22.808900° -43.243800°
Runways 2
Magnetic Variation 22.867° W

METAR

SBGL 150600Z 33004KT CAVOK 25/22 Q1015

Decode

TAF

TAF SBGL 142100Z 1500/1606 12005KT 9999 SCT030 TN25/1508Z TX37/1517Z BECMG 1502/1504 31003KT CAVOK BECMG 1504/1506 03005KT FEW017 PROB40 1509/1512 5000 BR FEW015 BECMG 1515/1517 14013KT SCT025 FEW030TCU PROB40 1520/1522 4500 TSRA SCT020 FEW030CB BECMG 1522/1524 12005KT SCT030 RMK PGU

Decode

Departure Runways

ID Width Length Bearing (true/mag) Surface Threshold Overrun Markings Lighting
10 148 ft / 45 m 13,136 ft / 4,004 m 74.40° / 97.26° CONCRETE 0 ft / 0 m 174 ft / 53 m PREC-APP CENTERLINE EDGE THRESHOLD ALSF-II TDZ REIL-OMNI
15 154 ft / 47 m 10,426 ft / 3,178 m 125.66° / 148.52° ASPHALT 0 ft / 0 m 184 ft / 56 m PREC-APP CENTERLINE EDGE THRESHOLD ALSF-I TDZ REIL-OMNI
28 148 ft / 45 m 13,136 ft / 4,004 m 254.38° / 277.25° CONCRETE 0 ft / 0 m 174 ft / 53 m PREC-APP CENTERLINE EDGE THRESHOLD ALSF-I TDZ REIL-OMNI
33 154 ft / 47 m 10,426 ft / 3,178 m 305.64° / 328.51° ASPHALT 0 ft / 0 m 184 ft / 56 m PREC-APP CENTERLINE EDGE THRESHOLD TDZ REIL-OMNI

SBAF

Details ICAO SBAF
Name Base Aerea dos Afonsos
Region Brazil
Timezone America/Sao_Paulo (UTC-2.0)
Stats Elevation 111 ft / 34 m (AMSL)
Location -22.875000° -43.384800°
Runways 1
Magnetic Variation 22.811° W

METAR

SBAF 150500Z 24002KT CAVOK 23/18 Q1016

Decode

TAF

Not found

Destination Runways

ID Width Length Bearing (true/mag) Surface Threshold Overrun Markings Lighting
08 171 ft / 52 m 6,571 ft / 2,003 m 61.40° / 84.21° CONCRETE 0 ft / 0 m 0 ft / 0 m PREC-APP EDGE THRESHOLD
26 171 ft / 52 m 6,571 ft / 2,003 m 241.39° / 264.20° CONCRETE 0 ft / 0 m 0 ft / 0 m PREC-APP EDGE THRESHOLD

Approach Navaids

Runway Type Ident Frequency Range Bearing (true/mag) Slope Elevation
26 LOC-LOC IAF 109.70 MHz 18 nm / 33 km 240.18° / 262.99 ° - 110 ft / 34 m (AMSL)

Popular Alternatives